Time;durP1;ratioP1;P1;durP2;ratioP2;P2;SDS_P1;SDS_P2;PMS_P1;PMS_P2;Temp;Humidity;BMP_temperature;BMP_pressure;BME280_temperature;BME280_humidity;BME280_pressure;Samples;Min_cycle;Max_cycle;Signal;HPM_P1;HPM_P2
2021/08/22 00:01:12;;;;;;;15.65;10.07;;;18.30;99.90;;;;;;5031816;28;20030;-74
2021/08/22 00:03:37;;;;;;;11.57;9.82;;;18.40;99.90;;;;;;5033082;28;20037;-74
2021/08/22 00:06:03;;;;;;;11.63;10.40;;;18.40;99.90;;;;;;5032220;28;20025;-73
2021/08/22 00:08:29;;;;;;;16.20;9.63;;;18.60;99.90;;;;;;5033029;28;20504;-74
2021/08/22 00:10:55;;;;;;;11.60;9.77;;;18.60;99.90;;;;;;5033815;28;20064;-74
2021/08/22 00:13:22;;;;;;;14.63;10.10;;;18.50;99.90;;;;;;5033072;28;20029;-75
2021/08/22 00:15:48;;;;;;;17.67;9.52;;;18.50;99.90;;;;;;5030875;28;20075;-74
2021/08/22 00:18:14;;;;;;;15.52;11.20;;;18.50;99.90;;;;;;5032465;28;20384;-74
2021/08/22 00:20:39;;;;;;;16.42;10.85;;;18.50;99.90;;;;;;5032339;28;20460;-75
2021/08/22 00:23:06;;;;;;;12.35;9.93;;;18.30;99.90;;;;;;5032100;28;20021;-74
2021/08/22 00:25:32;;;;;;;16.33;10.95;;;18.30;99.90;;;;;;5031597;28;20483;-74
2021/08/22 00:27:58;;;;;;;15.55;11.55;;;18.50;99.90;;;;;;5032576;28;20037;-75
2021/08/22 00:30:24;;;;;;;12.75;9.60;;;18.50;99.90;;;;;;5032599;28;20032;-75
2021/08/22 00:32:50;;;;;;;11.98;9.57;;;18.40;99.90;;;;;;5032403;28;20017;-74
2021/08/22 00:35:15;;;;;;;12.77;8.77;;;18.50;99.90;;;;;;5032056;28;20035;-75
2021/08/22 00:37:42;;;;;;;6.63;4.28;;;18.50;99.90;;;;;;5032443;28;20061;-75
2021/08/22 00:40:08;;;;;;;5.95;4.30;;;18.60;99.90;;;;;;5032409;28;20403;-76
2021/08/22 00:42:34;;;;;;;5.20;4.03;;;18.50;99.90;;;;;;5032810;28;20021;-75
2021/08/22 00:45:05;;;;;;;5.60;4.13;;;18.50;99.90;;;;;;5031957;28;20069;-75
2021/08/22 00:47:31;;;;;;;4.22;3.53;;;18.50;99.90;;;;;;5032141;28;20033;-75
2021/08/22 00:49:58;;;;;;;3.88;3.13;;;18.50;99.90;;;;;;5031467;28;20037;-75
2021/08/22 00:52:32;;;;;;;3.78;3.30;;;18.40;99.90;;;;;;5032369;28;20018;-75
2021/08/22 00:54:57;;;;;;;5.15;3.33;;;18.50;99.90;;;;;;5031345;28;20017;-75
2021/08/22 00:57:23;;;;;;;3.97;3.03;;;18.60;99.90;;;;;;5030713;28;20460;-75
2021/08/22 00:59:49;;;;;;;3.33;2.80;;;18.50;99.90;;;;;;5032014;28;20033;-74
2021/08/22 01:02:30;;;;;;;3.80;3.33;;;18.60;99.90;;;;;;5032101;28;20041;-75
2021/08/22 01:05:14;;;;;;;4.75;3.22;;;18.50;99.90;;;;;;5031340;28;20033;-75
2021/08/22 01:08:00;;;;;;;4.40;3.10;;;18.50;99.90;;;;;;5031816;28;20116;-76
2021/08/22 01:10:27;;;;;;;3.95;3.65;;;18.50;99.90;;;;;;5030265;28;20117;-75
2021/08/22 01:13:07;;;;;;;5.65;4.03;;;18.60;99.90;;;;;;5031600;28;20041;-75
2021/08/22 01:15:39;;;;;;;4.95;3.78;;;18.30;99.90;;;;;;5029559;28;20387;-75
2021/08/22 01:18:10;;;;;;;5.22;3.92;;;18.20;99.90;;;;;;5031883;28;20036;-76
2021/08/22 01:20:42;;;;;;;5.50;4.07;;;18.10;99.90;;;;;;5031656;28;20423;-74
2021/08/22 01:23:09;;;;;;;3.80;3.50;;;18.20;99.90;;;;;;5031848;28;20021;-74
2021/08/22 01:25:37;;;;;;;3.72;3.40;;;18.20;99.90;;;;;;5030939;28;20469;-73
2021/08/22 01:28:06;;;;;;;4.40;4.00;;;18.20;99.90;;;;;;5031655;28;20027;-75
2021/08/22 01:30:40;;;;;;;5.32;4.18;;;18.20;99.90;;;;;;5029429;28;20487;-75
2021/08/22 01:33:14;;;;;;;5.05;4.57;;;18.30;99.90;;;;;;5031517;28;20021;-74
2021/08/22 01:35:40;;;;;;;6.90;5.45;;;18.20;99.90;;;;;;5031047;28;20384;-74
2021/08/22 01:38:07;;;;;;;9.23;5.65;;;18.30;99.90;;;;;;5031251;28;20025;-74
2021/08/22 01:40:34;;;;;;;6.97;5.20;;;18.30;99.90;;;;;;5046766;22;20026;-74
2021/08/22 01:43:00;;;;;;;7.78;5.38;;;18.30;99.90;;;;;;5041577;28;20026;-74
2021/08/22 01:45:27;;;;;;;9.18;5.50;;;18.30;99.90;;;;;;5049967;28;20387;-74
2021/08/22 01:47:52;;;;;;;9.32;5.47;;;18.20;99.90;;;;;;5051325;28;20040;-74
2021/08/22 01:50:22;;;;;;;9.80;5.50;;;18.10;99.90;;;;;;5050663;28;20025;-74
2021/08/22 01:52:57;;;;;;;6.80;6.03;;;18.10;99.90;;;;;;5031607;28;20375;-75
2021/08/22 01:55:23;;;;;;;6.60;5.70;;;18.00;99.90;;;;;;5031031;28;20044;-74
2021/08/22 01:57:49;;;;;;;8.25;5.65;;;18.10;99.90;;;;;;5031203;28;20037;-74
2021/08/22 02:00:15;;;;;;;6.82;5.43;;;18.20;99.90;;;;;;5031148;28;20032;-74
2021/08/22 02:02:52;;;;;;;10.30;6.13;;;18.30;99.90;;;;;;5031341;28;20052;-74
2021/08/22 02:05:18;;;;;;;7.93;7.10;;;18.30;99.90;;;;;;5030867;28;20029;-74
2021/08/22 02:07:44;;;;;;;9.18;6.93;;;18.40;99.90;;;;;;5029470;28;20022;-74
2021/08/22 02:10:26;;;;;;;7.38;6.68;;;18.40;99.90;;;;;;5030194;28;20386;-75
2021/08/22 02:12:56;;;;;;;8.07;7.25;;;18.30;99.90;;;;;;5013194;28;20095;-75
2021/08/22 02:15:29;;;;;;;7.30;6.55;;;18.30;99.90;;;;;;5030696;28;20102;-75
2021/08/22 02:18:03;;;;;;;7.68;6.93;;;18.40;99.90;;;;;;5013659;28;20468;-74
2021/08/22 02:20:30;;;;;;;7.55;6.85;;;18.30;99.90;;;;;;5031145;28;20049;-73
2021/08/22 02:22:56;;;;;;;6.68;6.05;;;18.30;99.90;;;;;;5031225;28;20030;-73
2021/08/22 02:25:22;;;;;;;9.65;6.80;;;18.20;99.90;;;;;;5030248;28;20048;-74
2021/08/22 02:27:47;;;;;;;9.27;6.35;;;18.20;99.90;;;;;;5030787;28;20026;-73
2021/08/22 02:30:14;;;;;;;9.68;6.82;;;18.20;99.90;;;;;;5031174;28;20029;-74
2021/08/22 02:32:40;;;;;;;7.25;6.60;;;18.30;99.90;;;;;;5013403;28;20426;-74
2021/08/22 02:35:07;;;;;;;6.75;6.13;;;18.30;99.90;;;;;;5030523;28;20075;-74
2021/08/22 02:37:33;;;;;;;7.13;6.40;;;18.30;99.90;;;;;;5030847;28;20068;-74
2021/08/22 02:39:59;;;;;;;7.05;5.75;;;18.20;99.90;;;;;;5013223;28;20121;-74
2021/08/22 02:42:25;;;;;;;5.97;5.35;;;18.10;99.90;;;;;;5033639;28;20108;-74
2021/08/22 02:44:51;;;;;;;8.48;5.38;;;18.00;99.90;;;;;;5034016;28;20032;-74
2021/08/22 02:47:17;;;;;;;6.85;5.95;;;18.00;99.90;;;;;;5035052;28;20079;-74
2021/08/22 02:49:43;;;;;;;7.15;6.45;;;18.00;99.90;;;;;;5034572;28;20063;-74
2021/08/22 02:52:09;;;;;;;6.82;6.10;;;18.10;99.90;;;;;;5034673;28;20534;-73
2021/08/22 02:54:35;;;;;;;7.03;5.75;;;18.20;99.90;;;;;;5033853;28;20065;-76
2021/08/22 02:57:01;;;;;;;7.40;5.93;;;18.00;99.90;;;;;;5034436;28;20072;-73
2021/08/22 02:59:27;;;;;;;7.00;5.72;;;18.10;99.90;;;;;;5016814;28;20032;-74
2021/08/22 03:01:52;;;;;;;7.35;5.70;;;18.00;99.90;;;;;;5041013;28;20029;-74
2021/08/22 03:04:18;;;;;;;6.22;4.50;;;18.00;99.90;;;;;;5035566;28;20112;-73
2021/08/22 03:06:44;;;;;;;5.15;4.68;;;17.90;99.90;;;;;;5034677;28;20032;-75
2021/08/22 03:09:10;;;;;;;6.05;4.85;;;17.90;99.90;;;;;;5035062;28;20057;-75
2021/08/22 03:11:36;;;;;;;5.40;4.65;;;17.80;99.90;;;;;;5035368;28;20030;-75
2021/08/22 03:14:01;;;;;;;6.90;4.57;;;17.80;99.90;;;;;;5034301;28;20079;-73
2021/08/22 03:16:27;;;;;;;6.85;5.47;;;17.90;99.90;;;;;;5015774;28;20033;-74
2021/08/22 03:18:53;;;;;;;5.95;5.30;;;17.90;99.90;;;;;;5034483;28;20029;-74
2021/08/22 03:21:19;;;;;;;5.88;5.20;;;18.00;99.90;;;;;;5016437;28;20517;-74
2021/08/22 03:23:45;;;;;;;6.25;5.15;;;17.90;99.90;;;;;;5016103;28;20022;-73
2021/08/22 03:26:11;;;;;;;8.30;5.68;;;17.80;99.90;;;;;;5033137;28;20033;-73
2021/08/22 03:28:37;;;;;;;8.75;5.97;;;17.80;99.90;;;;;;5016204;28;20045;-74
2021/08/22 03:31:04;;;;;;;7.05;6.28;;;17.90;99.90;;;;;;5033968;28;20022;-74
2021/08/22 03:33:29;;;;;;;9.75;6.20;;;17.90;99.90;;;;;;5034152;28;20034;-74
2021/08/22 03:35:55;;;;;;;9.20;5.93;;;17.90;99.90;;;;;;5015420;28;20032;-73
2021/08/22 03:38:21;;;;;;;7.20;5.93;;;17.90;99.90;;;;;;5033615;28;20037;-73
2021/08/22 03:40:47;;;;;;;6.97;5.72;;;17.70;99.90;;;;;;5033545;28;20113;-74
2021/08/22 03:43:13;;;;;;;5.93;5.30;;;17.70;99.90;;;;;;5033366;28;20120;-74
2021/08/22 03:45:38;;;;;;;6.82;4.95;;;17.60;99.90;;;;;;5015023;28;20072;-75
2021/08/22 03:48:05;;;;;;;6.18;4.10;;;17.40;99.90;;;;;;5033564;28;20030;-74
2021/08/22 03:50:31;;;;;;;5.97;4.85;;;17.30;99.90;;;;;;5032621;28;20029;-74
2021/08/22 03:52:56;;;;;;;6.60;4.75;;;17.10;99.90;;;;;;5034858;28;20029;-73
2021/08/22 03:55:22;;;;;;;8.57;5.25;;;17.20;99.90;;;;;;5033018;28;20071;-74
2021/08/22 03:57:48;;;;;;;5.63;5.13;;;17.30;99.90;;;;;;5015633;28;20025;-74
2021/08/22 04:00:15;;;;;;;9.77;5.85;;;17.40;99.90;;;;;;5033397;28;20029;-73
2021/08/22 04:02:41;;;;;;;5.85;5.07;;;17.50;99.90;;;;;;5033377;28;20471;-73
2021/08/22 04:05:09;;;;;;;11.82;5.70;;;17.40;99.90;;;;;;5014886;28;20029;-73
2021/08/22 04:07:36;;;;;;;8.00;5.90;;;17.50;99.90;;;;;;5033144;28;20108;-74
2021/08/22 04:10:02;;;;;;;6.70;6.10;;;17.60;99.90;;;;;;5033295;28;20053;-75
2021/08/22 04:12:29;;;;;;;7.82;5.70;;;17.60;99.90;;;;;;5032763;28;20494;-74
2021/08/22 04:14:54;;;;;;;7.60;5.82;;;17.50;99.90;;;;;;5032384;28;20464;-74
2021/08/22 04:17:20;;;;;;;8.60;5.95;;;17.40;99.90;;;;;;5032989;28;20029;-74
2021/08/22 04:19:46;;;;;;;10.40;6.50;;;17.50;99.90;;;;;;5032929;28;20021;-74
2021/08/22 04:22:12;;;;;;;15.65;6.78;;;17.50;99.90;;;;;;5032976;28;20053;-75
2021/08/22 04:24:37;;;;;;;7.90;5.68;;;17.60;99.90;;;;;;5032155;28;20416;-74
2021/08/22 04:27:04;;;;;;;6.30;5.63;;;17.60;99.90;;;;;;5032836;28;20013;-73
2021/08/22 04:29:32;;;;;;;9.60;7.50;;;17.50;99.90;;;;;;5032912;28;20031;-74
2021/08/22 04:31:58;;;;;;;8.27;6.18;;;17.50;99.90;;;;;;5032927;28;20041;-74
2021/08/22 04:34:23;;;;;;;6.47;5.88;;;17.50;99.90;;;;;;5032622;28;20048;-74
2021/08/22 04:36:49;;;;;;;8.73;7.18;;;17.50;99.90;;;;;;5032599;28;20053;-74
2021/08/22 04:39:16;;;;;;;7.10;6.40;;;17.50;99.90;;;;;;5015244;28;20025;-74
2021/08/22 04:41:45;;;;;;;8.70;6.97;;;17.50;99.90;;;;;;5032489;28;20048;-74
2021/08/22 04:44:12;;;;;;;9.48;7.03;;;17.60;99.90;;;;;;5014752;28;20043;-74
2021/08/22 04:46:38;;;;;;;8.40;6.93;;;17.60;99.90;;;;;;5031962;28;20021;-74
2021/08/22 04:49:04;;;;;;;7.90;5.95;;;17.60;99.90;;;;;;5032383;28;20018;-74
2021/08/22 04:51:30;;;;;;;7.28;5.63;;;17.50;99.90;;;;;;5013927;28;20032;-74
2021/08/22 04:53:56;;;;;;;7.85;5.40;;;17.30;99.90;;;;;;5032563;28;20076;-74
2021/08/22 04:56:25;;;;;;;6.13;4.82;;;17.30;99.90;;;;;;5031632;28;20515;-74
2021/08/22 04:58:51;;;;;;;7.60;5.47;;;17.40;99.90;;;;;;5031756;28;20025;-74
2021/08/22 05:01:16;;;;;;;6.75;4.90;;;17.40;99.90;;;;;;5031953;28;20522;-76
2021/08/22 05:03:42;;;;;;;6.28;5.63;;;17.40;99.90;;;;;;5032191;28;20117;-74
2021/08/22 05:06:09;;;;;;;7.57;5.32;;;17.60;99.90;;;;;;5030519;28;20028;-74
2021/08/22 05:08:35;;;;;;;5.90;5.30;;;17.60;99.90;;;;;;5033038;28;20033;-75
2021/08/22 05:11:00;;;;;;;6.00;4.53;;;17.70;99.90;;;;;;5032210;28;20025;-74
2021/08/22 05:13:27;;;;;;;5.90;4.43;;;17.70;99.90;;;;;;5032080;28;20033;-74
2021/08/22 05:15:56;;;;;;;6.72;4.35;;;17.80;99.90;;;;;;5032073;28;20048;-74
2021/08/22 05:18:23;;;;;;;5.68;4.97;;;17.80;99.90;;;;;;5032290;28;20029;-74
2021/08/22 05:20:49;;;;;;;7.85;4.75;;;17.90;99.90;;;;;;5032027;28;20029;-74
2021/08/22 05:23:15;;;;;;;5.60;5.10;;;17.80;99.90;;;;;;5032198;28;20033;-74
2021/08/22 05:25:41;;;;;;;5.22;4.80;;;17.90;99.90;;;;;;5030493;28;20479;-73
2021/08/22 05:28:07;;;;;;;10.98;5.00;;;18.00;99.90;;;;;;5004789;28;20079;-73
2021/08/22 05:30:33;;;;;;;5.75;4.43;;;17.90;99.90;;;;;;5031119;28;20018;-74
2021/08/22 05:32:58;;;;;;;5.57;4.55;;;17.90;99.90;;;;;;5013359;28;20079;-74
2021/08/22 05:35:24;;;;;;;8.88;5.00;;;17.90;99.90;;;;;;5030893;28;20079;-75
2021/08/22 05:37:49;;;;;;;5.88;4.70;;;17.90;99.90;;;;;;5031101;28;20040;-75
2021/08/22 05:40:15;;;;;;;7.40;5.50;;;17.90;99.90;;;;;;5031345;28;20029;-72
2021/08/22 05:42:41;;;;;;;5.13;4.30;;;17.90;99.90;;;;;;5031120;28;20037;-74
2021/08/22 05:45:07;;;;;;;6.15;5.28;;;17.90;99.90;;;;;;5025691;28;20026;-74
2021/08/22 05:47:33;;;;;;;5.93;5.32;;;17.90;99.90;;;;;;5011329;28;20036;-74
2021/08/22 05:49:58;;;;;;;9.27;4.93;;;18.10;99.90;;;;;;5011728;28;20026;-72
2021/08/22 05:52:24;;;;;;;5.72;4.97;;;18.10;99.90;;;;;;4995017;28;20080;-74
2021/08/22 05:54:50;;;;;;;5.50;4.90;;;18.10;99.90;;;;;;5010890;28;20040;-73
2021/08/22 05:57:15;;;;;;;11.60;4.80;;;18.20;99.90;;;;;;5011387;28;20030;-73
2021/08/22 05:59:41;;;;;;;5.95;5.35;;;18.40;99.90;;;;;;5011240;28;20033;-74
2021/08/22 06:02:06;;;;;;;6.60;5.00;;;18.40;99.90;;;;;;5011304;28;20042;-75
2021/08/22 06:04:32;;;;;;;7.93;5.72;;;18.70;99.90;;;;;;4993187;28;20030;-75
2021/08/22 06:06:58;;;;;;;6.15;5.55;;;18.80;99.90;;;;;;5011441;28;20038;-74
2021/08/22 06:09:24;;;;;;;6.70;5.32;;;18.90;99.90;;;;;;4993551;28;20483;-74
2021/08/22 06:11:51;;;;;;;6.57;5.05;;;19.00;99.90;;;;;;5011713;28;20022;-74
2021/08/22 06:14:17;;;;;;;7.95;4.63;;;18.90;99.90;;;;;;5012068;28;20060;-77
2021/08/22 06:16:42;;;;;;;5.57;4.50;;;18.90;99.90;;;;;;5023553;28;20426;-74
2021/08/22 06:19:08;;;;;;;9.63;5.32;;;18.90;99.90;;;;;;5034736;28;20117;-74
2021/08/22 06:21:34;;;;;;;7.93;5.30;;;18.90;99.90;;;;;;5034822;28;20083;-73
2021/08/22 06:24:00;;;;;;;6.70;4.40;;;19.00;99.90;;;;;;5035139;28;20032;-74
2021/08/22 06:26:26;;;;;;;5.85;5.10;;;19.00;99.90;;;;;;5034379;28;20548;-74
2021/08/22 06:28:52;;;;;;;4.80;4.05;;;19.10;99.90;;;;;;5033805;28;20022;-74
2021/08/22 06:31:18;;;;;;;5.55;4.97;;;19.20;99.90;;;;;;5034636;28;20102;-74
2021/08/22 06:33:45;;;;;;;7.68;5.00;;;19.20;99.90;;;;;;5034888;28;20483;-74
2021/08/22 06:36:11;;;;;;;6.03;5.25;;;19.10;99.90;;;;;;5033740;28;20017;-73
2021/08/22 06:38:36;;;;;;;7.05;5.35;;;19.10;99.90;;;;;;5034073;28;20052;-74
2021/08/22 06:41:02;;;;;;;6.22;5.20;;;19.10;99.90;;;;;;5034320;28;20108;-74
2021/08/22 06:43:28;;;;;;;7.53;5.20;;;19.30;99.90;;;;;;5034519;28;20029;-75
2021/08/22 06:45:53;;;;;;;5.47;4.95;;;19.10;99.90;;;;;;5032814;28;20036;-73
2021/08/22 06:48:19;;;;;;;11.63;5.25;;;19.10;99.90;;;;;;5033941;28;20025;-74
2021/08/22 06:50:47;;;;;;;5.00;4.53;;;19.20;99.90;;;;;;5034011;28;20116;-74
2021/08/22 06:53:13;;;;;;;5.22;4.72;;;19.30;99.90;;;;;;5032561;28;20018;-74
2021/08/22 06:55:41;;;;;;;6.28;5.07;;;19.30;99.90;;;;;;5033693;28;20026;-74
2021/08/22 06:58:06;;;;;;;5.00;4.60;;;19.30;99.90;;;;;;5033728;28;20053;-74
2021/08/22 07:00:32;;;;;;;6.75;5.50;;;19.20;99.90;;;;;;5016233;28;20491;-74
2021/08/22 07:02:58;;;;;;;6.50;5.30;;;19.10;99.90;;;;;;5016242;28;20032;-74
2021/08/22 07:05:23;;;;;;;7.03;5.53;;;18.90;99.90;;;;;;5032216;28;20041;-73
2021/08/22 07:07:49;;;;;;;7.50;5.50;;;18.90;99.90;;;;;;5016476;28;20032;-74
2021/08/22 07:10:14;;;;;;;6.53;5.13;;;18.80;99.90;;;;;;5033979;28;20021;-74
2021/08/22 07:12:40;;;;;;;9.70;5.13;;;18.90;99.90;;;;;;5033867;28;20026;-75
2021/08/22 07:15:06;;;;;;;5.60;5.00;;;18.90;99.90;;;;;;5033342;28;20106;-74
2021/08/22 07:17:32;;;;;;;5.88;5.30;;;18.90;99.90;;;;;;5034275;28;20021;-74
2021/08/22 07:19:58;;;;;;;5.75;4.75;;;19.00;99.90;;;;;;5033428;28;20033;-74
2021/08/22 07:22:24;;;;;;;5.93;4.82;;;19.20;99.90;;;;;;5012049;28;20399;-77
2021/08/22 07:24:49;;;;;;;5.57;4.43;;;19.40;99.90;;;;;;5015771;28;20043;-76
2021/08/22 07:27:15;;;;;;;5.88;4.93;;;19.60;99.90;;;;;;5034053;28;20103;-76
2021/08/22 07:29:41;;;;;;;6.50;4.57;;;19.80;99.90;;;;;;5033290;28;20602;-76
2021/08/22 07:32:07;;;;;;;5.13;4.70;;;19.90;99.90;;;;;;5033714;28;20040;-76
2021/08/22 07:34:32;;;;;;;4.72;4.32;;;20.10;99.90;;;;;;5033756;28;20033;-75
2021/08/22 07:36:58;;;;;;;4.82;4.38;;;20.30;99.90;;;;;;5016930;28;20025;-77
2021/08/22 07:39:24;;;;;;;7.80;4.53;;;20.60;99.90;;;;;;5016446;28;20022;-75
2021/08/22 07:41:49;;;;;;;5.78;4.15;;;20.70;99.90;;;;;;5015836;28;20047;-73
2021/08/22 07:44:15;;;;;;;7.85;4.28;;;20.70;99.90;;;;;;5033163;28;20025;-74
2021/08/22 07:46:41;;;;;;;5.43;4.40;;;20.70;99.90;;;;;;5033804;28;20031;-75
2021/08/22 07:49:06;;;;;;;4.90;4.40;;;20.90;99.90;;;;;;5040438;28;20026;-71
2021/08/22 07:51:34;;;;;;;5.00;4.32;;;20.80;99.90;;;;;;5033327;28;20018;-72
2021/08/22 07:53:59;;;;;;;4.43;4.00;;;21.00;99.90;;;;;;5032826;28;20025;-75
2021/08/22 07:56:28;;;;;;;4.47;4.07;;;21.10;99.90;;;;;;5032789;28;20541;-74
2021/08/22 07:58:53;;;;;;;4.63;4.22;;;21.30;99.90;;;;;;5032136;28;20064;-72
2021/08/22 08:01:19;;;;;;;4.68;3.53;;;21.60;99.90;;;;;;5032743;28;20643;-73
2021/08/22 08:03:44;;;;;;;5.03;4.05;;;21.70;99.90;;;;;;5033232;28;20041;-73
2021/08/22 08:06:10;;;;;;;4.95;4.40;;;21.80;99.90;;;;;;5032231;28;20040;-75
2021/08/22 08:08:36;;;;;;;4.57;4.18;;;21.10;99.90;;;;;;5031709;28;20483;-71
2021/08/22 08:11:03;;;;;;;4.32;3.95;;;21.10;99.90;;;;;;5032537;28;20388;-74
2021/08/22 08:13:29;;;;;;;4.50;4.10;;;20.90;99.90;;;;;;5032894;28;20033;-73
2021/08/22 08:15:55;;;;;;;4.90;4.43;;;20.90;99.90;;;;;;5032151;28;20378;-74
2021/08/22 08:18:20;;;;;;;4.60;4.20;;;20.90;99.90;;;;;;5032483;28;20391;-75
2021/08/22 08:20:46;;;;;;;4.18;3.80;;;21.10;99.90;;;;;;5014644;28;20121;-71
2021/08/22 08:23:12;;;;;;;4.95;4.18;;;21.40;99.90;;;;;;5082194;22;20076;-75
2021/08/22 08:25:37;;;;;;;8.13;3.83;;;21.70;99.90;;;;;;5064542;28;20025;-75
2021/08/22 08:28:03;;;;;;;4.47;4.07;;;21.70;99.90;;;;;;5072392;28;20040;-74
2021/08/22 08:30:29;;;;;;;4.07;3.72;;;21.70;99.90;;;;;;5071351;28;20020;-73
2021/08/22 08:32:54;;;;;;;4.68;4.22;;;21.80;99.90;;;;;;5072245;28;20528;-73
2021/08/22 08:35:20;;;;;;;4.43;4.13;;;21.30;99.90;;;;;;5071525;28;20048;-74
2021/08/22 08:37:46;;;;;;;4.78;4.35;;;21.20;99.90;;;;;;5072029;28;20059;-73
2021/08/22 08:40:19;;;;;;;5.68;4.30;;;21.30;99.90;;;;;;5054380;28;20029;-74
2021/08/22 08:43:05;;;;;;;4.95;4.47;;;21.00;99.90;;;;;;5051919;28;20052;-73
2021/08/22 08:45:45;;;;;;;5.00;4.50;;;21.20;99.90;;;;;;5051048;28;20068;-73
2021/08/22 08:48:12;;;;;;;8.20;4.07;;;21.20;99.90;;;;;;5051795;28;20020;-74
2021/08/22 08:50:38;;;;;;;4.97;4.00;;;21.20;99.90;;;;;;5069032;28;20056;-74
2021/08/22 08:53:31;;;;;;;4.93;4.32;;;21.10;99.90;;;;;;5070548;28;20056;-74
2021/08/22 08:56:06;;;;;;;4.75;3.92;;;21.40;99.90;;;;;;5031699;28;20397;-74
2021/08/22 08:58:31;;;;;;;6.05;4.28;;;21.60;99.90;;;;;;5072254;28;20390;-74
2021/08/22 09:00:57;;;;;;;4.55;4.05;;;21.70;99.90;;;;;;5080084;28;20020;-75
2021/08/22 09:03:24;;;;;;;5.35;3.97;;;21.80;99.90;;;;;;5083776;28;20048;-75
2021/08/22 09:06:04;;;;;;;4.22;3.72;;;21.90;99.90;;;;;;5076929;28;20032;-74
2021/08/22 09:09:07;;;;;;;4.57;4.15;;;22.20;99.90;;;;;;5076550;28;20040;-73
2021/08/22 09:12:11;;;;;;;4.13;3.70;;;22.00;99.90;;;;;;5075293;28;20024;-75
2021/08/22 09:15:14;;;;;;;5.57;3.85;;;21.70;99.90;;;;;;5073470;28;20036;-75
2021/08/22 09:18:18;;;;;;;6.18;4.03;;;22.00;99.90;;;;;;5078008;28;20027;-75
2021/08/22 09:21:37;;;;;;;4.20;3.80;;;22.10;99.90;;;;;;5084370;28;20021;-76
2021/08/22 09:24:30;;;;;;;4.85;4.32;;;22.20;99.90;;;;;;5032946;28;20044;-76
2021/08/22 09:27:33;;;;;;;5.22;4.13;;;21.60;99.90;;;;;;5065688;28;20049;-75
2021/08/22 09:30:32;;;;;;;3.92;3.53;;;21.70;99.90;;;;;;5055786;28;20025;-74
2021/08/22 09:33:39;;;;;;;4.25;3.83;;;21.60;99.90;;;;;;5051440;28;20025;-73
2021/08/22 09:36:23;;;;;;;3.70;3.40;;;21.40;99.90;;;;;;5030326;28;20037;-74
2021/08/22 09:39:46;;;;;;;4.60;4.20;;;21.40;99.90;;;;;;5051453;28;20032;-74
2021/08/22 09:42:48;;;;;;;4.28;3.85;;;21.50;99.90;;;;;;5005268;28;20038;-74
2021/08/22 09:45:51;;;;;;;3.80;3.50;;;21.70;99.90;;;;;;5008451;28;20034;-74
2021/08/22 09:48:26;;;;;;;3.75;3.45;;;21.40;99.90;;;;;;5071077;28;20104;-72
2021/08/22 09:51:16;;;;;;;4.47;4.10;;;21.50;99.90;;;;;;5069805;28;20032;-74
2021/08/22 09:54:00;;;;;;;4.07;3.70;;;21.50;99.90;;;;;;5069984;28;20024;-73
2021/08/22 09:57:04;;;;;;;3.70;3.40;;;21.70;99.90;;;;;;5070378;28;20028;-73
2021/08/22 09:59:51;;;;;;;4.60;3.38;;;21.60;99.90;;;;;;5070867;28;20040;-73
2021/08/22 10:02:28;;;;;;;3.90;3.50;;;21.70;99.90;;;;;;5069550;28;20032;-72
2021/08/22 10:05:04;;;;;;;4.65;4.13;;;21.70;99.90;;;;;;5070144;28;20017;-72
2021/08/22 10:07:56;;;;;;;4.82;3.95;;;21.80;99.90;;;;;;5071087;28;20092;-70
2021/08/22 10:10:27;;;;;;;4.90;3.75;;;21.80;99.90;;;;;;5070766;28;20025;-72
2021/08/22 10:12:53;;;;;;;4.63;4.20;;;21.90;99.90;;;;;;5070966;28;20138;-73
2021/08/22 10:15:22;;;;;;;5.32;4.55;;;21.80;99.90;;;;;;5069989;28;20481;-72
2021/08/22 10:17:49;;;;;;;4.78;4.30;;;21.80;99.90;;;;;;5071027;28;20077;-71
2021/08/22 10:20:18;;;;;;;4.97;4.47;;;21.70;99.90;;;;;;5070798;28;20154;-73
2021/08/22 10:22:48;;;;;;;4.65;4.13;;;21.70;99.90;;;;;;5070367;28;20037;-73
2021/08/22 10:25:19;;;;;;;5.72;4.10;;;21.80;99.90;;;;;;5070073;28;20020;-73
2021/08/22 10:27:50;;;;;;;4.75;4.30;;;21.70;99.90;;;;;;5070881;28;20025;-73
2021/08/22 10:30:20;;;;;;;5.78;4.65;;;21.50;99.90;;;;;;5071053;28;20386;-72
2021/08/22 10:32:58;;;;;;;4.65;4.25;;;21.50;99.90;;;;;;5069277;28;20029;-74
2021/08/22 10:35:25;;;;;;;7.40;4.57;;;21.50;99.90;;;;;;5070096;28;20155;-74
2021/08/22 10:37:51;;;;;;;4.88;4.30;;;21.50;99.90;;;;;;5070807;28;20424;-74
2021/08/22 10:40:25;;;;;;;5.28;4.18;;;21.60;99.90;;;;;;5068459;28;20524;-72
2021/08/22 10:42:57;;;;;;;4.80;4.40;;;21.80;99.90;;;;;;5070182;28;20052;-73
2021/08/22 10:45:50;;;;;;;4.68;4.22;;;22.00;99.90;;;;;;5069702;28;20031;-73
2021/08/22 10:48:24;;;;;;;;;;;22.00;99.90;;;;;;5073916;28;20029;-74
2021/08/22 10:50:59;;;;;;;4.63;4.13;;;22.00;99.90;;;;;;5070773;28;19904;-73
2021/08/22 10:53:28;;;;;;;4.47;4.07;;;21.80;99.90;;;;;;5070659;28;20040;-73
2021/08/22 10:55:55;;;;;;;6.40;4.63;;;21.70;99.90;;;;;;5068610;28;20140;-73
2021/08/22 10:58:22;;;;;;;5.03;4.20;;;21.60;99.90;;;;;;5070021;28;20082;-72
2021/08/22 11:00:47;;;;;;;5.35;4.18;;;21.40;99.90;;;;;;5070658;28;20024;-71
2021/08/22 11:03:16;;;;;;;4.47;4.07;;;21.50;99.90;;;;;;5071338;28;20550;-71
2021/08/22 11:05:42;;;;;;;4.93;4.40;;;21.70;99.90;;;;;;5073257;28;20047;-72
2021/08/22 11:08:11;;;;;;;6.70;4.05;;;21.70;99.90;;;;;;5074021;28;20027;-72
2021/08/22 11:10:37;;;;;;;3.97;3.67;;;21.50;99.90;;;;;;5072043;28;20050;-73
2021/08/22 11:13:03;;;;;;;6.32;3.83;;;21.60;99.90;;;;;;5073976;28;20390;-73
2021/08/22 11:15:30;;;;;;;4.80;4.35;;;21.60;99.90;;;;;;5073509;28;20021;-72
2021/08/22 11:18:01;;;;;;;4.68;4.22;;;21.60;99.90;;;;;;5073941;28;20016;-72
2021/08/22 11:20:29;;;;;;;4.45;4.05;;;21.50;99.90;;;;;;5073762;28;20393;-74
2021/08/22 11:23:08;;;;;;;4.68;4.28;;;21.50;99.90;;;;;;5073275;28;20469;-72
2021/08/22 11:25:35;;;;;;;4.43;4.03;;;21.60;99.90;;;;;;5072688;28;20032;-73
2021/08/22 11:28:09;;;;;;;4.68;4.20;;;21.80;99.90;;;;;;5074031;28;20025;-72
2021/08/22 11:30:36;;;;;;;4.13;3.80;;;22.00;99.90;;;;;;5073701;28;20090;-72
2021/08/22 11:33:03;;;;;;;4.57;4.18;;;22.00;99.90;;;;;;5073565;28;20020;-72
2021/08/22 11:35:28;;;;;;;5.93;4.78;;;21.90;99.90;;;;;;5072791;28;20108;-74
2021/08/22 11:37:58;;;;;;;4.40;4.05;;;22.00;99.90;;;;;;5073320;28;20449;-74
2021/08/22 11:40:24;;;;;;;7.80;6.05;;;22.00;99.90;;;;;;5073449;28;20483;-74
2021/08/22 11:42:55;;;;;;;5.32;4.30;;;21.90;99.90;;;;;;5072846;28;20025;-74
2021/08/22 11:45:23;;;;;;;5.05;4.57;;;21.80;99.90;;;;;;5072204;28;20032;-74
2021/08/22 11:47:51;;;;;;;5.88;4.63;;;22.10;99.90;;;;;;5073422;28;20533;-74
2021/08/22 11:50:20;;;;;;;6.68;5.03;;;22.30;99.90;;;;;;5072990;28;20019;-74
2021/08/22 11:52:49;;;;;;;5.20;4.70;;;22.60;99.90;;;;;;5073181;28;20371;-73
2021/08/22 11:55:15;;;;;;;5.25;4.78;;;22.70;99.90;;;;;;5072543;28;20082;-74
2021/08/22 11:57:42;;;;;;;5.55;5.05;;;22.70;99.90;;;;;;5072865;28;20360;-74
2021/08/22 12:00:19;;;;;;;6.13;4.43;;;22.70;99.90;;;;;;5073090;28;20025;-74
2021/08/22 12:02:56;;;;;;;4.75;4.25;;;22.70;99.90;;;;;;5072807;28;20020;-73
2021/08/22 12:05:27;;;;;;;5.10;4.50;;;22.70;99.90;;;;;;5071997;28;20081;-74
2021/08/22 12:08:12;;;;;;;4.47;4.07;;;22.60;99.90;;;;;;5073127;28;20078;-72
2021/08/22 12:10:39;;;;;;;4.60;4.20;;;22.60;99.90;;;;;;5069069;28;20516;-73
2021/08/22 12:13:17;;;;;;;4.57;4.18;;;22.50;99.90;;;;;;5072688;28;20027;-74
2021/08/22 12:15:44;;;;;;;5.53;4.45;;;22.30;99.90;;;;;;5071715;28;20067;-74
2021/08/22 12:18:29;;;;;;;5.53;4.45;;;22.40;99.90;;;;;;5072925;28;20111;-78
2021/08/22 12:21:15;;;;;;;6.13;5.22;;;22.40;99.90;;;;;;5073225;28;20035;-74
2021/08/22 12:23:43;;;;;;;5.70;4.70;;;22.70;99.90;;;;;;5058966;28;20031;-80
2021/08/22 12:26:33;;;;;;;5.85;4.65;;;22.80;99.90;;;;;;5077131;28;20024;-84
2021/08/22 12:29:09;;;;;;;5.75;4.88;;;22.90;99.90;;;;;;5086067;28;20020;-80
2021/08/22 12:31:39;;;;;;;5.95;4.82;;;23.10;99.90;;;;;;5093732;28;20028;-81
2021/08/22 12:34:07;;;;;;;4.70;4.30;;;23.20;99.90;;;;;;5092700;28;20009;-83
2021/08/22 12:36:45;;;;;;;4.45;4.15;;;23.20;99.90;;;;;;5083548;28;20458;-79
2021/08/22 12:39:12;;;;;;;5.00;4.50;;;23.20;99.90;;;;;;5079330;28;20081;-80
2021/08/22 12:41:48;;;;;;;4.60;4.20;;;22.80;99.90;;;;;;5080680;28;20025;-81
2021/08/22 12:44:24;;;;;;;4.63;4.13;;;22.60;99.90;;;;;;5078590;28;20394;-81
2021/08/22 12:46:51;;;;;;;6.18;4.15;;;22.60;99.90;;;;;;5089644;28;20029;-77
2021/08/22 12:49:17;;;;;;;4.72;4.28;;;22.80;99.90;;;;;;5090558;28;20016;-78
2021/08/22 12:51:54;;;;;;;4.97;3.95;;;22.50;99.90;;;;;;5083779;28;20028;-78
2021/08/22 12:54:21;;;;;;;4.70;4.30;;;22.30;99.90;;;;;;5074872;28;20479;-78
2021/08/22 12:56:50;;;;;;;4.70;4.22;;;22.00;99.90;;;;;;5075835;28;20036;-80
2021/08/22 12:59:16;;;;;;;5.00;4.50;;;21.90;99.90;;;;;;5077641;28;20104;-80